Time;durP1;ratioP1;P1;durP2;ratioP2;P2;SDS_P1;SDS_P2;PMS_P1;PMS_P2;Temp;Humidity;BMP_temperature;BMP_pressure;BME280_temperature;BME280_humidity;BME280_pressure;Samples;Min_cycle;Max_cycle;Signal;HPM_P1;HPM_P2
2022/11/13 00:00:45;;;;;;;;;;;8.50;55.80;;;;;;5073773;28;20402;-87
2022/11/13 00:03:11;;;;;;;;;;;8.50;55.80;;;;;;5074663;28;19909;-88
2022/11/13 00:05:36;;;;;;;;;;;8.40;55.80;;;;;;5074316;28;20462;-88
2022/11/13 00:08:02;;;;;;;;;;;8.40;55.80;;;;;;5072326;28;19916;-86
2022/11/13 00:10:28;;;;;;;;;;;8.40;55.80;;;;;;5072375;28;20287;-86
2022/11/13 00:12:54;;;;;;;;;;;8.30;55.80;;;;;;5071843;28;19924;-89
2022/11/13 00:15:21;;;;;;;;;;;8.30;55.90;;;;;;5085596;28;19933;-88
2022/11/13 00:17:46;;;;;;;;;;;8.30;55.90;;;;;;5077508;28;19913;-88
2022/11/13 00:20:12;;;;;;;;;;;8.30;55.90;;;;;;5072190;28;19916;-88
2022/11/13 00:22:38;;;;;;;;;;;8.20;56.00;;;;;;5075090;28;19996;-87
2022/11/13 00:25:04;;;;;;;;;;;8.20;56.00;;;;;;5087031;28;20007;-87
2022/11/13 00:27:30;;;;;;;;;;;8.20;56.00;;;;;;5074228;28;20533;-87
2022/11/13 00:29:56;;;;;;;;;;;8.20;56.00;;;;;;5071834;28;19917;-86
2022/11/13 00:32:21;;;;;;;;;;;8.20;55.90;;;;;;5074197;28;19947;-87
2022/11/13 00:34:47;;;;;;;;;;;8.20;55.90;;;;;;5089431;28;19931;-88
2022/11/13 00:37:13;;;;;;;;;;;8.20;56.00;;;;;;5092351;28;19977;-88
2022/11/13 00:39:39;;;;;;;;;;;8.10;56.10;;;;;;5095904;28;20005;-89
2022/11/13 00:42:05;;;;;;;;;;;8.10;56.20;;;;;;5093158;28;20362;-88
2022/11/13 00:44:30;;;;;;;;;;;8.10;56.50;;;;;;5088361;28;19923;-89
2022/11/13 00:46:56;;;;;;;;;;;8.10;56.60;;;;;;5071392;28;19915;-86
2022/11/13 00:49:22;;;;;;;;;;;8.10;56.50;;;;;;5073902;28;19947;-88
2022/11/13 00:51:48;;;;;;;;;;;8.10;56.40;;;;;;5088406;28;20397;-88
2022/11/13 00:54:13;;;;;;;;;;;8.00;56.40;;;;;;5097541;28;20282;-87
2022/11/13 00:56:39;;;;;;;;;;;8.00;56.40;;;;;;5092498;28;19919;-88
2022/11/13 00:59:05;;;;;;;;;;;8.00;56.30;;;;;;5072942;28;19935;-88
2022/11/13 01:01:30;;;;;;;;;;;8.00;56.30;;;;;;5083756;28;20421;-86
2022/11/13 01:03:56;;;;;;;;;;;8.00;56.30;;;;;;5091095;28;20420;-87
2022/11/13 01:06:23;;;;;;;;;;;8.00;56.40;;;;;;5090534;28;19912;-90
2022/11/13 01:08:49;;;;;;;;;;;8.00;56.30;;;;;;5092511;28;20001;-86
2022/11/13 01:11:18;;;;;;;;;;;8.00;56.30;;;;;;5093308;28;20381;-87
2022/11/13 01:13:45;;;;;;;;;;;8.00;56.30;;;;;;5092425;28;19920;-88
2022/11/13 01:16:11;;;;;;;;;;;7.90;56.20;;;;;;5086538;28;20011;-88
2022/11/13 01:18:37;;;;;;;;;;;7.90;56.20;;;;;;5072217;28;19920;-88
2022/11/13 01:21:03;;;;;;;;;;;7.90;56.30;;;;;;5070797;28;20289;-88
2022/11/13 01:23:29;;;;;;;;;;;7.90;56.20;;;;;;5071055;28;20285;-88
2022/11/13 01:26:02;;;;;;;;;;;7.90;56.30;;;;;;5074578;28;19959;-88
2022/11/13 01:28:28;;;;;;;;;;;7.90;56.30;;;;;;5072495;28;19912;-88
2022/11/13 01:30:53;;;;;;;;;;;7.90;56.20;;;;;;5072150;28;19938;-88
2022/11/13 01:33:19;;;;;;;;;;;7.90;56.20;;;;;;5075263;28;19918;-89
2022/11/13 01:35:45;;;;;;;;;;;7.90;56.20;;;;;;5093709;28;19916;-86
2022/11/13 01:38:10;;;;;;;;;;;7.90;56.20;;;;;;5093695;28;19974;-85
2022/11/13 01:40:43;;;;;;;;;;;7.90;56.20;;;;;;5092132;28;19947;-86
2022/11/13 01:43:22;;;;;;;;;;;7.90;56.20;;;;;;5094800;28;19909;-86
2022/11/13 01:45:57;;;;;;;;;;;7.90;56.40;;;;;;5076077;28;20396;-88
2022/11/13 01:48:23;;;;;;;;;;;7.90;56.40;;;;;;5070344;28;19952;-90
2022/11/13 01:50:49;;;;;;;;;;;7.80;56.40;;;;;;5071273;28;19962;-88
2022/11/13 01:53:15;;;;;;;;;;;7.80;56.40;;;;;;5085419;28;20581;-86
2022/11/13 01:55:40;;;;;;;;;;;7.80;56.30;;;;;;5090191;28;19927;-89
2022/11/13 01:58:07;;;;;;;;;;;7.80;56.30;;;;;;5098339;28;19912;-88
2022/11/13 02:00:33;;;;;;;;;;;7.80;56.20;;;;;;5088962;28;20020;-89
2022/11/13 02:02:59;;;;;;;;;;;7.80;56.20;;;;;;5073087;28;19947;-88
2022/11/13 02:05:24;;;;;;;;;;;7.80;56.20;;;;;;5072078;28;19916;-89
2022/11/13 02:07:50;;;;;;;;;;;7.80;56.20;;;;;;5070553;28;19908;-86
2022/11/13 02:10:16;;;;;;;;;;;7.80;56.20;;;;;;5074733;28;19921;-86
2022/11/13 02:12:43;;;;;;;;;;;7.80;56.20;;;;;;5071977;28;19908;-87
2022/11/13 02:15:09;;;;;;;;;;;7.80;56.20;;;;;;5069416;28;19928;-86
2022/11/13 02:17:39;;;;;;;;;;;7.80;56.20;;;;;;5071300;28;19916;-89
2022/11/13 02:20:05;;;;;;;;;;;7.70;56.20;;;;;;5075890;28;19970;-87
2022/11/13 02:22:35;;;;;;;;;;;7.70;56.20;;;;;;5071732;28;19920;-88
2022/11/13 02:25:01;;;;;;;;;;;7.70;56.10;;;;;;5092286;28;19923;-87
2022/11/13 02:27:36;;;;;;;;;;;7.70;56.10;;;;;;5095434;28;19896;-88
2022/11/13 02:30:14;;;;;;;;;;;7.70;56.10;;;;;;5090161;28;19916;-88
2022/11/13 02:32:44;;;;;;;;;;;7.70;56.10;;;;;;5072092;28;19922;-89
2022/11/13 02:35:10;;;;;;;;;;;7.60;56.10;;;;;;5092101;28;19928;-86
2022/11/13 02:37:36;;;;;;;;;;;7.60;56.10;;;;;;5094365;28;20007;-89
2022/11/13 02:40:02;;;;;;;;;;;7.60;56.20;;;;;;5093940;28;19916;-89
2022/11/13 02:42:28;;;;;;;;;;;7.60;56.20;;;;;;5094627;28;19926;-89
2022/11/13 02:44:53;;;;;;;;;;;7.50;56.20;;;;;;5089346;28;19916;-88
2022/11/13 02:47:19;;;;;;;;;;;7.60;56.20;;;;;;5073327;28;19997;-86
2022/11/13 02:49:45;;;;;;;;;;;7.60;56.30;;;;;;5074253;28;19923;-89
2022/11/13 02:52:10;;;;;;;;;;;7.50;56.40;;;;;;5074780;28;20317;-87
2022/11/13 02:54:36;;;;;;;;;;;7.50;56.40;;;;;;5075723;28;19924;-88
2022/11/13 02:57:01;;;;;;;;;;;7.50;56.40;;;;;;5072967;28;20315;-89
2022/11/13 02:59:27;;;;;;;;;;;7.50;56.40;;;;;;5079706;28;19921;-86
2022/11/13 03:01:52;;;;;;;;;;;7.50;56.30;;;;;;5075136;28;19944;-85
2022/11/13 03:04:18;;;;;;;;;;;7.50;56.20;;;;;;5073984;28;19979;-88
2022/11/13 03:06:44;;;;;;;;;;;7.40;56.20;;;;;;5073541;28;19908;-89
2022/11/13 03:09:09;;;;;;;;;;;7.40;56.30;;;;;;5074613;28;19929;-89
2022/11/13 03:11:35;;;;;;;;;;;7.40;56.30;;;;;;5075716;28;19909;-87
2022/11/13 03:14:00;;;;;;;;;;;7.40;56.30;;;;;;5087512;28;19916;-88
2022/11/13 03:16:26;;;;;;;;;;;7.30;56.20;;;;;;5094910;28;19922;-88
2022/11/13 03:18:52;;;;;;;;;;;7.30;56.30;;;;;;5094234;28;20011;-88
2022/11/13 03:21:17;;;;;;;;;;;7.30;56.20;;;;;;5094630;28;19930;-88
2022/11/13 03:23:46;;;;;;;;;;;7.30;56.20;;;;;;5094236;28;19916;-88
2022/11/13 03:26:13;;;;;;;;;;;7.30;56.10;;;;;;5078531;28;20267;-86
2022/11/13 03:28:38;;;;;;;;;;;7.30;56.10;;;;;;5073996;28;19923;-88
2022/11/13 03:31:04;;;;;;;;;;;7.30;56.10;;;;;;5075315;28;19916;-88
2022/11/13 03:33:30;;;;;;;;;;;7.30;56.20;;;;;;5079736;28;19919;-88
2022/11/13 03:35:55;;;;;;;;;;;7.30;56.20;;;;;;5094494;28;19920;-88
2022/11/13 03:38:21;;;;;;;;;;;7.20;56.20;;;;;;5094297;28;19912;-88
2022/11/13 03:40:47;;;;;;;;;;;7.20;56.10;;;;;;5095823;28;20359;-88
2022/11/13 03:43:12;;;;;;;;;;;7.20;56.10;;;;;;5094948;28;19908;-88
2022/11/13 03:45:38;;;;;;;;;;;7.20;56.10;;;;;;5091477;28;19912;-88
2022/11/13 03:48:04;;;;;;;;;;;7.10;56.10;;;;;;5093814;28;19912;-88
2022/11/13 03:50:30;;;;;;;;;;;7.10;56.10;;;;;;5094563;28;19959;-88
2022/11/13 03:52:55;;;;;;;;;;;7.00;56.10;;;;;;5092427;28;20287;-88
2022/11/13 03:55:21;;;;;;;;;;;7.00;56.00;;;;;;5094039;28;19932;-88
2022/11/13 03:57:47;;;;;;;;;;;6.90;56.00;;;;;;5093485;28;19954;-88
2022/11/13 04:00:13;;;;;;;;;;;6.90;56.00;;;;;;5092403;28;20275;-89
2022/11/13 04:02:39;;;;;;;;;;;6.80;56.10;;;;;;5093569;28;20370;-89
2022/11/13 04:05:05;;;;;;;;;;;6.80;56.10;;;;;;5092357;28;20274;-86
2022/11/13 04:07:31;;;;;;;;;;;6.80;56.10;;;;;;5092614;28;19912;-89
2022/11/13 04:09:57;;;;;;;;;;;6.80;56.10;;;;;;5091908;28;19923;-89
2022/11/13 04:12:22;;;;;;;;;;;6.80;56.10;;;;;;5093870;28;20399;-88
2022/11/13 04:14:48;;;;;;;;;;;6.70;56.00;;;;;;5095246;28;19947;-89
2022/11/13 04:17:13;;;;;;;;;;;6.70;56.00;;;;;;5095289;28;19947;-89
2022/11/13 04:19:39;;;;;;;;;;;6.60;56.00;;;;;;5092649;28;19934;-88
2022/11/13 04:22:05;;;;;;;;;;;6.60;56.10;;;;;;5092368;28;20578;-88
2022/11/13 04:24:31;;;;;;;;;;;6.60;56.20;;;;;;5093464;28;19920;-85
2022/11/13 04:26:56;;;;;;;;;;;6.50;56.20;;;;;;5093519;28;20392;-87
2022/11/13 04:29:22;;;;;;;;;;;6.50;56.20;;;;;;5091980;28;19916;-86
2022/11/13 04:31:48;;;;;;;;;;;6.50;56.30;;;;;;5093160;28;20363;-86
2022/11/13 04:34:13;;;;;;;;;;;6.50;56.30;;;;;;5096479;28;19955;-88
2022/11/13 04:36:39;;;;;;;;;;;6.50;56.40;;;;;;5096486;28;19913;-86
2022/11/13 04:39:04;;;;;;;;;;;6.50;56.40;;;;;;5093517;28;19917;-89
2022/11/13 04:44:14;;;;;;;;;;;6.40;56.40;;;;;;5076363;28;19923;-89
2022/11/13 04:46:40;;;;;;;;;;;6.40;56.50;;;;;;5072352;28;19909;-89
2022/11/13 04:49:05;;;;;;;;;;;6.40;56.50;;;;;;5072234;28;19916;-88
2022/11/13 04:51:31;;;;;;;;;;;6.30;56.60;;;;;;5083675;28;20011;-89
2022/11/13 04:53:57;;;;;;;;;;;6.30;56.60;;;;;;5092834;28;19916;-88
2022/11/13 04:56:22;;;;;;;;;;;6.30;56.60;;;;;;5094999;28;19935;-88
2022/11/13 04:58:48;;;;;;;;;;;6.30;56.70;;;;;;5094913;28;19920;-87
2022/11/13 05:01:14;;;;;;;;;;;6.30;57.10;;;;;;5093558;28;19919;-89
2022/11/13 05:03:39;;;;;;;;;;;6.30;57.40;;;;;;5083101;28;19917;-88
2022/11/13 05:06:06;;;;;;;;;;;6.30;57.30;;;;;;5071871;28;19908;-85
2022/11/13 05:08:32;;;;;;;;;;;6.30;57.20;;;;;;5073814;28;20314;-88
2022/11/13 05:10:58;;;;;;;;;;;6.20;57.10;;;;;;5071630;28;20365;-89
2022/11/13 05:13:23;;;;;;;;;;;6.20;57.00;;;;;;5074120;28;20014;-86
2022/11/13 05:15:49;;;;;;;;;;;6.30;56.90;;;;;;5073739;28;20481;-88
2022/11/13 05:18:15;;;;;;;;;;;6.30;56.90;;;;;;5070711;28;19915;-88
2022/11/13 05:20:40;;;;;;;;;;;6.30;57.00;;;;;;5071039;28;19908;-86
2022/11/13 05:23:06;;;;;;;;;;;6.20;56.90;;;;;;5078274;28;19919;-88
2022/11/13 05:25:31;;;;;;;;;;;6.20;56.90;;;;;;5077106;28;20007;-86
2022/11/13 05:27:57;;;;;;;;;;;6.20;56.90;;;;;;5071756;28;19909;-88
2022/11/13 05:30:23;;;;;;;;;;;6.20;56.90;;;;;;5072849;28;19916;-87
2022/11/13 05:32:48;;;;;;;;;;;6.20;56.80;;;;;;5070485;28;19978;-86
2022/11/13 05:35:14;;;;;;;;;;;6.20;56.80;;;;;;5089781;28;19946;-88
2022/11/13 05:37:40;;;;;;;;;;;6.20;56.80;;;;;;5090666;28;19934;-89
2022/11/13 05:40:08;;;;;;;;;;;6.20;56.80;;;;;;5092009;28;21837;-87
2022/11/13 05:42:34;;;;;;;;;;;6.20;56.90;;;;;;5092044;28;19936;-89
2022/11/13 05:45:00;;;;;;;;;;;6.10;57.00;;;;;;5077052;28;19989;-88
2022/11/13 05:47:25;;;;;;;;;;;6.20;57.10;;;;;;5071696;28;19943;-87
2022/11/13 05:49:51;;;;;;;;;;;6.20;57.20;;;;;;5070116;28;20247;-89
2022/11/13 05:52:17;;;;;;;;;;;6.10;57.30;;;;;;5072310;28;20003;-86
2022/11/13 05:54:43;;;;;;;;;;;6.20;57.20;;;;;;5070872;28;19924;-86
2022/11/13 05:57:10;;;;;;;;;;;6.10;57.20;;;;;;5070444;28;20322;-86
2022/11/13 05:59:36;;;;;;;;;;;6.10;57.00;;;;;;5073473;28;19956;-88
2022/11/13 06:02:02;;;;;;;;;;;6.10;56.90;;;;;;5071146;28;19908;-89
2022/11/13 06:04:28;;;;;;;;;;;6.10;56.80;;;;;;5071819;28;19920;-88
2022/11/13 06:06:54;;;;;;;;;;;6.00;56.80;;;;;;5070446;28;19908;-89
2022/11/13 06:09:20;;;;;;;;;;;6.00;57.30;;;;;;5071133;28;20279;-84
2022/11/13 06:11:46;;;;;;;;;;;6.10;57.80;;;;;;5071717;28;19909;-85
2022/11/13 06:14:11;;;;;;;;;;;6.20;58.20;;;;;;5072407;28;19923;-85
2022/11/13 06:16:37;;;;;;;;;;;6.20;58.40;;;;;;5071851;28;20357;-88
2022/11/13 06:19:04;;;;;;;;;;;6.20;58.40;;;;;;5075798;28;19961;-89
2022/11/13 06:21:31;;;;;;;;;;;6.20;58.40;;;;;;5074870;28;19912;-89
2022/11/13 06:23:57;;;;;;;;;;;6.20;58.30;;;;;;5073550;28;19916;-89
2022/11/13 06:26:24;;;;;;;;;;;6.20;58.20;;;;;;5069600;28;19908;-89
2022/11/13 06:28:50;;;;;;;;;;;6.20;58.10;;;;;;5071165;28;20409;-87
2022/11/13 06:31:26;;;;;;;;;;;6.20;57.90;;;;;;5072842;28;19959;-89
2022/11/13 06:33:52;;;;;;;;;;;6.20;57.90;;;;;;5082149;28;19916;-89
2022/11/13 06:36:19;;;;;;;;;;;6.20;57.90;;;;;;5092732;28;20278;-87
2022/11/13 06:38:44;;;;;;;;;;;6.20;57.90;;;;;;5094292;28;19917;-88
2022/11/13 06:41:12;;;;;;;;;;;6.20;57.80;;;;;;5092284;28;19908;-88
2022/11/13 06:43:37;;;;;;;;;;;6.20;57.80;;;;;;5085546;28;19978;-89
2022/11/13 06:46:09;;;;;;;;;;;6.20;57.80;;;;;;5086089;28;19912;-88
2022/11/13 06:48:35;;;;;;;;;;;6.20;57.90;;;;;;5090371;28;19916;-89
2022/11/13 06:51:02;;;;;;;;;;;6.20;57.90;;;;;;5084367;28;19920;-85
2022/11/13 06:53:28;;;;;;;;;;;6.20;58.00;;;;;;5072198;28;19974;-89
2022/11/13 06:55:53;;;;;;;;;;;6.30;58.70;;;;;;5069824;28;19951;-89
2022/11/13 06:58:19;;;;;;;;;;;6.40;59.20;;;;;;5072502;28;20598;-86
2022/11/13 07:00:45;;;;;;;;;;;6.60;59.70;;;;;;5084576;28;19966;-88
2022/11/13 07:03:25;;;;;;;;;;;6.80;60.00;;;;;;5091408;28;19912;-89
2022/11/13 07:05:51;;;;;;;;;;;7.10;60.20;;;;;;5088340;28;19995;-87
2022/11/13 07:08:17;;;;;;;;;;;7.30;60.40;;;;;;5071945;28;19991;-87
2022/11/13 07:10:43;;;;;;;;;;;7.70;60.80;;;;;;5070198;28;19913;-88
2022/11/13 07:13:08;;;;;;;;;;;8.00;61.40;;;;;;5072238;28;20659;-86
2022/11/13 07:15:38;;;;;;;;;;;8.40;61.80;;;;;;5071250;28;19924;-88
2022/11/13 07:18:04;;;;;;;;;;;8.70;62.00;;;;;;5071789;28;19908;-88
2022/11/13 07:20:30;;;;;;;;;;;9.10;62.70;;;;;;5073495;28;19924;-88
2022/11/13 07:22:56;;;;;;;;;;;9.50;63.00;;;;;;5079491;28;19912;-88
2022/11/13 07:25:22;;;;;;;;;;;9.90;63.30;;;;;;5077561;28;19917;-90
2022/11/13 07:27:48;;;;;;;;;;;10.30;63.30;;;;;;5075025;28;20009;-88
2022/11/13 07:30:14;;;;;;;;;;;10.70;62.90;;;;;;5073389;28;19962;-86
2022/11/13 07:32:40;;;;;;;;;;;11.10;62.40;;;;;;5073740;28;20437;-87
2022/11/13 07:35:06;;;;;;;;;;;11.50;62.20;;;;;;5092412;28;20014;-88
2022/11/13 07:37:32;;;;;;;;;;;11.80;61.70;;;;;;5096210;28;20008;-86
2022/11/13 07:39:58;;;;;;;;;;;12.00;61.30;;;;;;5092973;28;19916;-88
2022/11/13 07:42:24;;;;;;;;;;;12.20;61.60;;;;;;5092721;28;19912;-88
2022/11/13 07:44:50;;;;;;;;;;;12.60;61.90;;;;;;5087347;28;20011;-88
2022/11/13 07:47:16;;;;;;;;;;;13.00;62.10;;;;;;5073128;28;19969;-88
2022/11/13 07:49:42;;;;;;;;;;;13.30;62.00;;;;;;5075313;28;19970;-88
2022/11/13 07:52:08;;;;;;;;;;;13.80;62.10;;;;;;5072506;28;19908;-90
2022/11/13 07:54:33;;;;;;;;;;;14.30;62.00;;;;;;5076477;28;20383;-88
2022/11/13 07:56:59;;;;;;;;;;;14.70;61.70;;;;;;5082005;28;20295;-87
2022/11/13 07:59:25;;;;;;;;;;;15.20;61.60;;;;;;5095580;28;20534;-89
2022/11/13 08:01:51;;;;;;;;;;;15.50;61.30;;;;;;5095099;28;19915;-88
2022/11/13 08:04:16;;;;;;;;;;;15.90;61.00;;;;;;5093980;28;19970;-88
2022/11/13 08:06:42;;;;;;;;;;;16.10;60.30;;;;;;5092753;28;19912;-87
2022/11/13 08:09:08;;;;;;;;;;;16.30;59.60;;;;;;5094383;28;20007;-90
2022/11/13 08:11:34;;;;;;;;;;;16.50;59.50;;;;;;5093915;28;19916;-89
2022/11/13 08:13:59;;;;;;;;;;;16.70;59.60;;;;;;5093724;28;19939;-89
2022/11/13 08:16:25;;;;;;;;;;;17.00;59.70;;;;;;5093368;28;19959;-88
2022/11/13 08:18:51;;;;;;;;;;;17.30;60.20;;;;;;5096014;28;19993;-89
2022/11/13 08:21:17;;;;;;;;;;;17.70;60.00;;;;;;5096211;28;19923;-87
2022/11/13 08:23:43;;;;;;;;;;;18.00;59.60;;;;;;5098794;28;19912;-89
2022/11/13 08:26:08;;;;;;;;;;;18.40;59.20;;;;;;5096719;28;19961;-87
2022/11/13 08:28:35;;;;;;;;;;;18.70;59.00;;;;;;5095071;28;19916;-88
2022/11/13 08:31:01;;;;;;;;;;;18.90;58.80;;;;;;5094980;28;19923;-88
2022/11/13 08:33:28;;;;;;;;;;;19.20;58.10;;;;;;5096751;28;19908;-86
2022/11/13 08:35:58;;;;;;;;;;;19.40;58.10;;;;;;5095439;28;20389;-89
2022/11/13 08:38:24;;;;;;;;;;;19.60;58.30;;;;;;5091900;28;19915;-89
2022/11/13 08:40:50;;;;;;;;;;;19.90;58.60;;;;;;5093495;28;20005;-86
2022/11/13 08:43:16;;;;;;;;;;;20.20;59.00;;;;;;5080626;28;19913;-87
2022/11/13 08:45:43;;;;;;;;;;;20.50;59.10;;;;;;5085825;28;19912;-89
2022/11/13 08:48:09;;;;;;;;;;;20.70;58.90;;;;;;5093616;28;19912;-89
2022/11/13 08:50:35;;;;;;;;;;;21.10;59.30;;;;;;5095147;28;20330;-88
2022/11/13 08:53:01;;;;;;;;;;;21.30;59.60;;;;;;5093963;28;19919;-89
2022/11/13 08:55:26;;;;;;;;;;;21.70;59.60;;;;;;5093632;28;19947;-90
2022/11/13 08:57:52;;;;;;;;;;;21.90;59.50;;;;;;5091863;28;19915;-89
2022/11/13 09:00:19;;;;;;;;;;;22.10;59.10;;;;;;5092856;28;20417;-88
2022/11/13 09:02:44;;;;;;;;;;;22.30;58.90;;;;;;5093141;28;19915;-87
2022/11/13 09:05:10;;;;;;;;;;;22.50;59.20;;;;;;5093695;28;19920;-86
2022/11/13 09:07:36;;;;;;;;;;;22.80;59.80;;;;;;5091897;28;19915;-89
2022/11/13 09:10:02;;;;;;;;;;;23.00;59.20;;;;;;5092290;28;19923;-87
2022/11/13 09:12:28;;;;;;;;;;;23.20;59.50;;;;;;5091806;28;20445;-90
2022/11/13 09:14:54;;;;;;;;;;;23.40;59.70;;;;;;5092156;28;20397;-89
2022/11/13 09:17:20;;;;;;;;;;;23.50;59.60;;;;;;5091033;28;19916;-88
2022/11/13 09:19:46;;;;;;;;;;;23.70;58.40;;;;;;5093165;28;19912;-86
2022/11/13 09:22:12;;;;;;;;;;;23.80;57.60;;;;;;5092866;28;20363;-89
2022/11/13 09:24:37;;;;;;;;;;;24.00;57.10;;;;;;5096324;28;19951;-88
2022/11/13 09:27:03;;;;;;;;;;;24.10;56.90;;;;;;5092229;28;19916;-87
2022/11/13 09:29:30;;;;;;;;;;;24.30;57.00;;;;;;5091408;28;19912;-88
2022/11/13 09:31:55;;;;;;;;;;;24.40;55.50;;;;;;5091972;28;19943;-87
2022/11/13 09:34:21;;;;;;;;;;;24.50;54.70;;;;;;5092087;28;19908;-88
2022/11/13 09:36:48;;;;;;;;;;;24.60;55.70;;;;;;5082687;28;19924;-88
2022/11/13 09:39:14;;;;;;;;;;;24.60;56.50;;;;;;5091794;28;20373;-86
2022/11/13 09:41:45;;;;;;;;;;;24.80;56.50;;;;;;5092031;28;19920;-88
2022/11/13 09:44:27;;;;;;;;;;;24.90;55.40;;;;;;5093952;28;19912;-89
2022/11/13 09:46:54;;;;;;;;;;;25.10;54.00;;;;;;5071005;28;20632;-88
2022/11/13 09:49:20;;;;;;;;;;;25.20;53.20;;;;;;5072823;28;19955;-87
2022/11/13 09:51:53;;;;;;;;;;;25.30;53.60;;;;;;5072122;28;19916;-89
2022/11/13 09:54:19;;;;;;;;;;;25.30;54.30;;;;;;5072952;28;19939;-88
2022/11/13 09:56:57;;;;;;;;;;;25.50;54.40;;;;;;5074086;28;19921;-89
2022/11/13 09:59:27;;;;;;;;;;;25.60;54.80;;;;;;5070781;28;19908;-88
2022/11/13 10:02:12;;;;;;;;;;;25.80;54.50;;;;;;5071041;28;19916;-89
2022/11/13 10:04:40;;;;;;;;;;;25.90;53.70;;;;;;5070496;28;19936;-89
2022/11/13 10:07:12;;;;;;;;;;;26.00;54.30;;;;;;5071889;28;19916;-87
2022/11/13 10:09:41;;;;;;;;;;;26.10;54.40;;;;;;5071872;28;19971;-87
2022/11/13 10:12:07;;;;;;;;;;;26.20;53.80;;;;;;5072371;28;20694;-86
2022/11/13 10:14:41;;;;;;;;;;;26.30;53.30;;;;;;5072642;28;19969;-87
2022/11/13 10:17:27;;;;;;;;;;;26.50;53.00;;;;;;5071672;28;19920;-89
2022/11/13 10:19:58;;;;;;;;;;;26.60;53.50;;;;;;5067621;28;19947;-88
2022/11/13 10:22:24;;;;;;;;;;;26.80;53.50;;;;;;5073185;28;19935;-87
2022/11/13 10:24:51;;;;;;;;;;;26.80;53.30;;;;;;5073084;28;20283;-85
2022/11/13 10:27:17;;;;;;;;;;;27.00;52.70;;;;;;5072120;28;19924;-89
2022/11/13 10:29:43;;;;;;;;;;;27.00;52.30;;;;;;5072726;28;19908;-90
2022/11/13 10:32:28;;;;;;;;;;;27.10;52.60;;;;;;5071086;28;19920;-87
2022/11/13 10:34:58;;;;;;;;;;;27.20;53.50;;;;;;5092110;28;20420;-88
2022/11/13 10:37:42;;;;;;;;;;;27.30;52.00;;;;;;5095170;28;20303;-89
2022/11/13 10:40:08;;;;;;;;;;;27.40;50.90;;;;;;5091227;28;19957;-89
2022/11/13 10:42:38;;;;;;;;;;;27.40;50.50;;;;;;5086943;28;20003;-87
2022/11/13 10:45:05;;;;;;;;;;;27.50;50.60;;;;;;5082342;28;19922;-86
2022/11/13 10:47:31;;;;;;;;;;;27.60;50.80;;;;;;5095213;28;19920;-88
2022/11/13 10:50:07;;;;;;;;;;;27.70;50.00;;;;;;5093363;28;19989;-86
2022/11/13 10:52:33;;;;;;;;;;;27.80;50.70;;;;;;5093585;28;19919;-86
2022/11/13 10:55:16;;;;;;;;;;;27.80;50.40;;;;;;5090730;28;19962;-89
2022/11/13 10:57:41;;;;;;;;;;;27.80;49.20;;;;;;5096588;28;19920;-89
2022/11/13 11:00:21;;;;;;;;;;;27.80;49.50;;;;;;5101965;28;20037;-90
2022/11/13 11:02:48;;;;;;;;;;;27.80;47.80;;;;;;5098330;28;19916;-89
2022/11/13 11:05:18;;;;;;;;;;;27.60;45.10;;;;;;5100399;28;19908;-89
2022/11/13 11:07:44;;;;;;;;;;;27.50;45.30;;;;;;5075327;28;19919;-89
2022/11/13 11:10:22;;;;;;;;;;;27.30;44.90;;;;;;5076259;28;20279;-88
2022/11/13 11:12:55;;;;;;;;;;;27.20;44.10;;;;;;5074157;28;19916;-89
2022/11/13 11:15:23;;;;;;;;;;;27.10;44.50;;;;;;5073023;28;19916;-89
2022/11/13 11:18:00;;;;;;;;;;;27.00;43.40;;;;;;5072812;28;19958;-87
2022/11/13 11:20:35;;;;;;;;;;;26.80;42.80;;;;;;5077119;28;20324;-89
2022/11/13 11:23:11;;;;;;;;;;;26.70;42.60;;;;;;5073738;28;19914;-88
2022/11/13 11:25:46;;;;;;;;;;;26.60;41.40;;;;;;5074294;28;19923;-87
2022/11/13 11:28:33;;;;;;;;;;;26.50;41.50;;;;;;5076741;28;19908;-90
2022/11/13 11:31:03;;;;;;;;;;;26.40;42.90;;;;;;5078961;28;19921;-86
2022/11/13 11:33:31;;;;;;;;;;;26.30;42.50;;;;;;5079355;28;19994;-88
2022/11/13 11:35:57;;;;;;;;;;;26.40;42.80;;;;;;5093544;28;20407;-88
2022/11/13 11:38:32;;;;;;;;;;;26.30;38.60;;;;;;5095956;28;19986;-88
2022/11/13 11:41:09;;;;;;;;;;;26.20;37.20;;;;;;5092732;28;19939;-88
2022/11/13 11:44:07;;;;;;;;;;;26.00;38.20;;;;;;5094907;28;19951;-90
2022/11/13 11:46:34;;;;;;;;;;;25.80;38.20;;;;;;5072724;28;19921;-90
2022/11/13 11:49:00;;;;;;;;;;;25.80;37.80;;;;;;5080674;28;19908;-89
2022/11/13 11:51:32;;;;;;;;;;;25.70;37.70;;;;;;5074568;28;20019;-88
2022/11/13 11:53:58;;;;;;;;;;;25.60;36.80;;;;;;5074074;28;19908;-88
2022/11/13 11:56:32;;;;;;;;;;;25.40;36.50;;;;;;5073998;28;19931;-88
2022/11/13 11:59:03;;;;;;;;;;;25.30;36.70;;;;;;5075119;28;19948;-89
2022/11/13 12:01:47;;;;;;;;;;;25.10;36.00;;;;;;5073978;28;19950;-87
2022/11/13 12:04:39;;;;;;;;;;;24.90;37.00;;;;;;5090197;28;19916;-90
2022/11/13 12:07:05;;;;;;;;;;;24.40;35.50;;;;;;5078420;28;19922;-88
2022/11/13 12:09:34;;;;;;;;;;;23.80;37.00;;;;;;5094818;28;19986;-86
2022/11/13 12:12:03;;;;;;;;;;;23.40;37.60;;;;;;5093886;28;19916;-90
2022/11/13 12:14:40;;;;;;;;;;;23.00;37.90;;;;;;5093140;28;20275;-89
2022/11/13 12:17:16;;;;;;;;;;;22.60;37.50;;;;;;5074158;28;19955;-90
2022/11/13 12:19:57;;;;;;;;;;;22.30;37.40;;;;;;5075098;28;19916;-88
2022/11/13 12:22:29;;;;;;;;;;;22.00;37.30;;;;;;5075399;28;20306;-89
2022/11/13 12:25:08;;;;;;;;;;;21.80;37.80;;;;;;5085009;28;20392;-87
2022/11/13 12:27:39;;;;;;;;;;;21.60;37.80;;;;;;5093750;28;20366;-88
2022/11/13 12:30:07;;;;;;;;;;;21.40;37.30;;;;;;5097398;28;19954;-90
2022/11/13 12:32:39;;;;;;;;;;;21.30;37.40;;;;;;5095512;28;20290;-89
2022/11/13 12:35:10;;;;;;;;;;;21.20;37.50;;;;;;5094630;28;19916;-88
2022/11/13 12:37:46;;;;;;;;;;;21.10;38.10;;;;;;5091028;28;19938;-88
2022/11/13 12:40:19;;;;;;;;;;;21.00;37.90;;;;;;5096032;28;19915;-90
2022/11/13 12:42:50;;;;;;;;;;;21.00;38.50;;;;;;5085759;28;19913;-89
2022/11/13 12:45:33;;;;;;;;;;;20.80;38.20;;;;;;5082655;28;19908;-90
2022/11/13 12:48:08;;;;;;;;;;;20.80;38.60;;;;;;5077733;28;19920;-88
2022/11/13 12:50:35;;;;;;;;;;;20.70;39.10;;;;;;5073444;28;20347;-88
2022/11/13 12:53:01;;;;;;;;;;;20.70;39.80;;;;;;5073810;28;19916;-87
2022/11/13 12:55:35;;;;;;;;;;;20.70;39.80;;;;;;5074575;28;19916;-86
2022/11/13 12:58:16;;;;;;;;;;;20.70;40.00;;;;;;5078967;28;19921;-89
2022/11/13 13:00:51;;;;;;;;;;;20.60;39.90;;;;;;5073285;28;19909;-86
2022/11/13 13:03:23;;;;;;;;;;;20.50;40.20;;;;;;5076137;28;19920;-87
2022/11/13 13:05:51;;;;;;;;;;;20.50;40.30;;;;;;5074920;28;19919;-87
2022/11/13 13:08:20;;;;;;;;;;;20.50;40.60;;;;;;5095910;28;20277;-89
2022/11/13 13:11:09;;;;;;;;;;;20.50;40.40;;;;;;5095172;28;20362;-89
2022/11/13 13:13:48;;;;;;;;;;;20.40;40.90;;;;;;5094314;28;19946;-87
2022/11/13 13:16:20;;;;;;;;;;;20.40;41.00;;;;;;5093325;28;19924;-89
2022/11/13 13:18:46;;;;;;;;;;;20.40;41.20;;;;;;5092153;28;19928;-87
2022/11/13 13:21:14;;;;;;;;;;;20.40;40.30;;;;;;5095074;28;19962;-87
2022/11/13 13:23:41;;;;;;;;;;;20.40;39.80;;;;;;5092179;28;19920;-88
2022/11/13 13:26:24;;;;;;;;;;;20.40;40.00;;;;;;5097334;28;20354;-86
2022/11/13 13:28:53;;;;;;;;;;;20.40;39.20;;;;;;5095784;28;19959;-86
2022/11/13 13:31:37;;;;;;;;;;;20.40;40.20;;;;;;5092805;28;20328;-87
2022/11/13 13:34:18;;;;;;;;;;;20.40;39.40;;;;;;5085462;28;19964;-89
2022/11/13 13:36:50;;;;;;;;;;;20.40;39.30;;;;;;5091857;28;20018;-88
2022/11/13 13:39:15;;;;;;;;;;;20.40;39.60;;;;;;5092852;28;20410;-86
2022/11/13 13:41:47;;;;;;;;;;;20.40;40.40;;;;;;5080308;28;20431;-89
2022/11/13 13:44:16;;;;;;;;;;;20.30;40.20;;;;;;5075327;28;19916;-88
2022/11/13 13:46:41;;;;;;;;;;;20.30;40.20;;;;;;5078456;28;19916;-88
2022/11/13 13:49:13;;;;;;;;;;;20.30;39.80;;;;;;5074638;28;19920;-86
2022/11/13 13:51:40;;;;;;;;;;;20.30;39.70;;;;;;5074800;28;19916;-86
2022/11/13 13:54:07;;;;;;;;;;;20.30;39.60;;;;;;5073589;28;19947;-88
2022/11/13 13:56:34;;;;;;;;;;;20.30;39.90;;;;;;5076089;28;19980;-89
2022/11/13 13:59:00;;;;;;;;;;;20.30;39.10;;;;;;5071461;28;19920;-88
2022/11/13 14:01:27;;;;;;;;;;;20.30;38.90;;;;;;5072973;28;19915;-88
2022/11/13 14:04:12;;;;;;;;;;;20.20;37.80;;;;;;5072904;28;20004;-87
2022/11/13 14:06:46;;;;;;;;;;;20.20;37.50;;;;;;5072360;28;20335;-89
2022/11/13 14:09:26;;;;;;;;;;;20.20;36.80;;;;;;5073417;28;19917;-89
2022/11/13 14:11:57;;;;;;;;;;;20.20;36.40;;;;;;5072084;28;19915;-87
2022/11/13 14:14:23;;;;;;;;;;;20.20;36.70;;;;;;5073158;28;19923;-89
2022/11/13 14:16:50;;;;;;;;;;;20.10;36.40;;;;;;5072738;28;19939;-86
2022/11/13 14:19:17;;;;;;;;;;;20.10;35.80;;;;;;5072105;28;19916;-85
2022/11/13 14:21:47;;;;;;;;;;;20.10;35.70;;;;;;5072860;28;20327;-88
2022/11/13 14:24:20;;;;;;;;;;;20.00;35.90;;;;;;5076874;28;19923;-89
2022/11/13 14:26:47;;;;;;;;;;;20.10;35.90;;;;;;5074766;28;19950;-87
2022/11/13 14:29:32;;;;;;;;;;;20.00;36.00;;;;;;5071655;28;20016;-88
2022/11/13 14:32:24;;;;;;;;;;;19.90;36.00;;;;;;5074519;28;19916;-87